sensor_id;sensor_type;location;lat;lon;timestamp;P1;durP1;ratioP1;P2;durP2;ratioP2
46110;SDS011;31849;55.992;37.252;2023-05-10T00:03:39;17.90;;;7.43;;
46110;SDS011;31849;55.992;37.252;2023-05-10T00:08:44;13.90;;;7.40;;
46110;SDS011;31849;55.992;37.252;2023-05-10T00:13:48;18.65;;;7.40;;
46110;SDS011;31849;55.992;37.252;2023-05-10T00:18:51;15.93;;;7.93;;
46110;SDS011;31849;55.992;37.252;2023-05-10T00:23:56;14.45;;;7.45;;
46110;SDS011;31849;55.992;37.252;2023-05-10T00:34:03;18.00;;;7.63;;
46110;SDS011;31849;55.992;37.252;2023-05-10T00:39:08;16.05;;;7.20;;
46110;SDS011;31849;55.992;37.252;2023-05-10T00:44:11;15.43;;;7.40;;
46110;SDS011;31849;55.992;37.252;2023-05-10T00:49:15;12.45;;;6.47;;
46110;SDS011;31849;55.992;37.252;2023-05-10T00:54:20;14.70;;;7.32;;
46110;SDS011;31849;55.992;37.252;2023-05-10T00:59:24;13.80;;;7.13;;
46110;SDS011;31849;55.992;37.252;2023-05-10T01:04:28;13.75;;;6.30;;
46110;SDS011;31849;55.992;37.252;2023-05-10T01:09:34;11.05;;;6.07;;
46110;SDS011;31849;55.992;37.252;2023-05-10T01:14:38;10.45;;;4.90;;
46110;SDS011;31849;55.992;37.252;2023-05-10T01:19:42;10.30;;;4.20;;
46110;SDS011;31849;55.992;37.252;2023-05-10T01:24:51;12.75;;;5.95;;
46110;SDS011;31849;55.992;37.252;2023-05-10T01:30:33;10.43;;;5.10;;
46110;SDS011;31849;55.992;37.252;2023-05-10T01:35:54;10.27;;;5.82;;
46110;SDS011;31849;55.992;37.252;2023-05-10T01:41:05;10.52;;;6.55;;
46110;SDS011;31849;55.992;37.252;2023-05-10T01:46:16;17.60;;;6.20;;
46110;SDS011;31849;55.992;37.252;2023-05-10T01:51:26;11.18;;;5.15;;
46110;SDS011;31849;55.992;37.252;2023-05-10T01:56:34;9.45;;;4.55;;
46110;SDS011;31849;55.992;37.252;2023-05-10T02:01:41;9.73;;;4.75;;
46110;SDS011;31849;55.992;37.252;2023-05-10T02:06:47;12.55;;;4.93;;
46110;SDS011;31849;55.992;37.252;2023-05-10T02:11:51;9.57;;;5.68;;
46110;SDS011;31849;55.992;37.252;2023-05-10T02:16:56;7.78;;;5.03;;
46110;SDS011;31849;55.992;37.252;2023-05-10T02:22:04;8.60;;;4.90;;
46110;SDS011;31849;55.992;37.252;2023-05-10T02:27:09;12.75;;;4.57;;
46110;SDS011;31849;55.992;37.252;2023-05-10T02:32:15;11.00;;;5.07;;
46110;SDS011;31849;55.992;37.252;2023-05-10T02:37:22;11.95;;;5.78;;
46110;SDS011;31849;55.992;37.252;2023-05-10T02:42:28;13.27;;;6.20;;
46110;SDS011;31849;55.992;37.252;2023-05-10T02:47:34;11.18;;;5.97;;
46110;SDS011;31849;55.992;37.252;2023-05-10T02:52:40;8.03;;;5.30;;
46110;SDS011;31849;55.992;37.252;2023-05-10T02:57:48;14.13;;;6.40;;
46110;SDS011;31849;55.992;37.252;2023-05-10T03:02:55;12.93;;;6.97;;
46110;SDS011;31849;55.992;37.252;2023-05-10T03:08:00;15.73;;;8.40;;
46110;SDS011;31849;55.992;37.252;2023-05-10T03:13:06;10.77;;;6.90;;
46110;SDS011;31849;55.992;37.252;2023-05-10T03:18:21;12.23;;;6.57;;
46110;SDS011;31849;55.992;37.252;2023-05-10T03:23:30;14.13;;;7.53;;
46110;SDS011;31849;55.992;37.252;2023-05-10T03:28:38;10.13;;;5.90;;
46110;SDS011;31849;55.992;37.252;2023-05-10T03:38:51;11.13;;;5.93;;
46110;SDS011;31849;55.992;37.252;2023-05-10T03:48:58;11.98;;;5.88;;
46110;SDS011;31849;55.992;37.252;2023-05-10T03:54:03;9.70;;;5.07;;
46110;SDS011;31849;55.992;37.252;2023-05-10T03:59:07;7.03;;;4.07;;
46110;SDS011;31849;55.992;37.252;2023-05-10T04:04:10;7.47;;;3.85;;
46110;SDS011;31849;55.992;37.252;2023-05-10T04:09:16;7.05;;;4.07;;
46110;SDS011;31849;55.992;37.252;2023-05-10T04:14:19;8.15;;;3.92;;
46110;SDS011;31849;55.992;37.252;2023-05-10T04:19:23;7.72;;;4.13;;
46110;SDS011;31849;55.992;37.252;2023-05-10T04:24:28;8.68;;;3.60;;
46110;SDS011;31849;55.992;37.252;2023-05-10T04:29:31;12.43;;;4.20;;
46110;SDS011;31849;55.992;37.252;2023-05-10T04:34:35;6.93;;;4.07;;
46110;SDS011;31849;55.992;37.252;2023-05-10T04:39:40;7.93;;;4.45;;
46110;SDS011;31849;55.992;37.252;2023-05-10T04:44:43;10.38;;;3.70;;
46110;SDS011;31849;55.992;37.252;2023-05-10T04:49:47;7.10;;;3.47;;
46110;SDS011;31849;55.992;37.252;2023-05-10T04:54:52;8.18;;;3.28;;
46110;SDS011;31849;55.992;37.252;2023-05-10T04:59:55;4.30;;;2.50;;
46110;SDS011;31849;55.992;37.252;2023-05-10T05:04:59;4.03;;;2.35;;
46110;SDS011;31849;55.992;37.252;2023-05-10T05:10:06;5.70;;;2.67;;
46110;SDS011;31849;55.992;37.252;2023-05-10T05:15:11;5.65;;;2.70;;
46110;SDS011;31849;55.992;37.252;2023-05-10T05:20:15;7.80;;;3.08;;
46110;SDS011;31849;55.992;37.252;2023-05-10T05:25:20;7.97;;;2.75;;
46110;SDS011;31849;55.992;37.252;2023-05-10T05:30:24;6.82;;;3.08;;
46110;SDS011;31849;55.992;37.252;2023-05-10T05:35:27;5.95;;;3.17;;
46110;SDS011;31849;55.992;37.252;2023-05-10T05:40:32;7.13;;;2.80;;
46110;SDS011;31849;55.992;37.252;2023-05-10T05:45:36;5.55;;;2.70;;
46110;SDS011;31849;55.992;37.252;2023-05-10T05:50:40;5.65;;;2.88;;
46110;SDS011;31849;55.992;37.252;2023-05-10T05:55:51;6.25;;;2.70;;
46110;SDS011;31849;55.992;37.252;2023-05-10T06:00:56;6.28;;;3.10;;
46110;SDS011;31849;55.992;37.252;2023-05-10T06:06:00;7.97;;;2.70;;
46110;SDS011;31849;55.992;37.252;2023-05-10T06:11:05;5.57;;;2.53;;
46110;SDS011;31849;55.992;37.252;2023-05-10T06:16:08;6.45;;;2.60;;
46110;SDS011;31849;55.992;37.252;2023-05-10T06:21:12;5.77;;;2.67;;
46110;SDS011;31849;55.992;37.252;2023-05-10T06:26:17;8.05;;;2.83;;
46110;SDS011;31849;55.992;37.252;2023-05-10T06:31:22;5.20;;;2.65;;
46110;SDS011;31849;55.992;37.252;2023-05-10T06:36:26;6.77;;;3.33;;
46110;SDS011;31849;55.992;37.252;2023-05-10T06:41:30;5.93;;;2.53;;
46110;SDS011;31849;55.992;37.252;2023-05-10T06:46:34;5.72;;;2.55;;
46110;SDS011;31849;55.992;37.252;2023-05-10T06:51:38;5.68;;;2.90;;
46110;SDS011;31849;55.992;37.252;2023-05-10T06:56:43;5.78;;;3.08;;
46110;SDS011;31849;55.992;37.252;2023-05-10T07:01:46;5.38;;;3.03;;
46110;SDS011;31849;55.992;37.252;2023-05-10T07:06:50;6.90;;;3.10;;
46110;SDS011;31849;55.992;37.252;2023-05-10T07:11:55;4.22;;;2.60;;
46110;SDS011;31849;55.992;37.252;2023-05-10T07:16:59;4.72;;;2.70;;
46110;SDS011;31849;55.992;37.252;2023-05-10T07:22:02;5.72;;;2.65;;
46110;SDS011;31849;55.992;37.252;2023-05-10T07:27:07;7.20;;;2.30;;
46110;SDS011;31849;55.992;37.252;2023-05-10T07:32:11;4.18;;;2.05;;
46110;SDS011;31849;55.992;37.252;2023-05-10T07:37:15;3.53;;;2.30;;
46110;SDS011;31849;55.992;37.252;2023-05-10T07:42:20;7.00;;;2.40;;
46110;SDS011;31849;55.992;37.252;2023-05-10T07:47:23;3.30;;;2.03;;
46110;SDS011;31849;55.992;37.252;2023-05-10T07:52:27;3.97;;;2.05;;
46110;SDS011;31849;55.992;37.252;2023-05-10T07:57:32;3.75;;;1.98;;
46110;SDS011;31849;55.992;37.252;2023-05-10T08:02:36;2.85;;;1.80;;
46110;SDS011;31849;55.992;37.252;2023-05-10T08:07:40;4.13;;;1.80;;
46110;SDS011;31849;55.992;37.252;2023-05-10T08:12:45;3.65;;;1.83;;
46110;SDS011;31849;55.992;37.252;2023-05-10T08:17:49;7.13;;;2.15;;
46110;SDS011;31849;55.992;37.252;2023-05-10T08:22:52;3.70;;;2.00;;
46110;SDS011;31849;55.992;37.252;2023-05-10T08:27:57;2.85;;;1.70;;
46110;SDS011;31849;55.992;37.252;2023-05-10T08:33:01;3.80;;;2.00;;
46110;SDS011;31849;55.992;37.252;2023-05-10T08:38:04;3.28;;;1.60;;
46110;SDS011;31849;55.992;37.252;2023-05-10T08:48:14;4.03;;;1.80;;
46110;SDS011;31849;55.992;37.252;2023-05-10T08:53:19;2.80;;;1.90;;
46110;SDS011;31849;55.992;37.252;2023-05-10T08:58:25;5.28;;;2.20;;
46110;SDS011;31849;55.992;37.252;2023-05-10T09:03:29;3.10;;;1.80;;
46110;SDS011;31849;55.992;37.252;2023-05-10T09:08:34;3.85;;;1.67;;
46110;SDS011;31849;55.992;37.252;2023-05-10T09:13:41;3.03;;;1.60;;
46110;SDS011;31849;55.992;37.252;2023-05-10T09:18:45;2.95;;;1.50;;
46110;SDS011;31849;55.992;37.252;2023-05-10T09:23:49;2.83;;;1.80;;
46110;SDS011;31849;55.992;37.252;2023-05-10T09:28:57;3.13;;;1.95;;
46110;SDS011;31849;55.992;37.252;2023-05-10T09:34:02;3.47;;;1.70;;
46110;SDS011;31849;55.992;37.252;2023-05-10T09:39:05;3.13;;;1.65;;
46110;SDS011;31849;55.992;37.252;2023-05-10T09:44:10;2.92;;;1.52;;
46110;SDS011;31849;55.992;37.252;2023-05-10T09:49:14;2.60;;;1.60;;
46110;SDS011;31849;55.992;37.252;2023-05-10T09:54:17;3.10;;;1.90;;
46110;SDS011;31849;55.992;37.252;2023-05-10T09:59:23;3.00;;;1.70;;
46110;SDS011;31849;55.992;37.252;2023-05-10T10:04:29;3.67;;;1.80;;
46110;SDS011;31849;55.992;37.252;2023-05-10T10:09:33;6.80;;;1.90;;
46110;SDS011;31849;55.992;37.252;2023-05-10T10:14:39;3.03;;;1.70;;
46110;SDS011;31849;55.992;37.252;2023-05-10T10:19:43;2.55;;;1.80;;
46110;SDS011;31849;55.992;37.252;2023-05-10T10:24:47;4.95;;;1.90;;
46110;SDS011;31849;55.992;37.252;2023-05-10T10:29:59;5.82;;;1.90;;
46110;SDS011;31849;55.992;37.252;2023-05-10T10:35:11;4.22;;;1.75;;
46110;SDS011;31849;55.992;37.252;2023-05-10T10:40:24;3.17;;;1.73;;
46110;SDS011;31849;55.992;37.252;2023-05-10T10:45:34;4.70;;;1.60;;
46110;SDS011;31849;55.992;37.252;2023-05-10T10:50:43;4.57;;;2.20;;
46110;SDS011;31849;55.992;37.252;2023-05-10T10:55:48;5.13;;;1.75;;
46110;SDS011;31849;55.992;37.252;2023-05-10T11:00:53;4.45;;;1.73;;
46110;SDS011;31849;55.992;37.252;2023-05-10T11:06:13;4.05;;;1.70;;
46110;SDS011;31849;55.992;37.252;2023-05-10T11:11:31;2.33;;;1.60;;
46110;SDS011;31849;55.992;37.252;2023-05-10T11:16:41;3.42;;;1.60;;
46110;SDS011;31849;55.992;37.252;2023-05-10T11:21:46;5.25;;;1.70;;
46110;SDS011;31849;55.992;37.252;2023-05-10T11:26:51;2.88;;;1.90;;
46110;SDS011;31849;55.992;37.252;2023-05-10T11:31:58;3.30;;;1.90;;
46110;SDS011;31849;55.992;37.252;2023-05-10T11:37:02;2.80;;;1.77;;
46110;SDS011;31849;55.992;37.252;2023-05-10T11:42:05;3.45;;;2.00;;
46110;SDS011;31849;55.992;37.252;2023-05-10T11:47:12;3.60;;;1.77;;
46110;SDS011;31849;55.992;37.252;2023-05-10T11:52:15;4.60;;;2.30;;
46110;SDS011;31849;55.992;37.252;2023-05-10T11:57:26;4.20;;;2.05;;
46110;SDS011;31849;55.992;37.252;2023-05-10T12:02:32;2.83;;;1.80;;
46110;SDS011;31849;55.992;37.252;2023-05-10T12:07:35;4.82;;;1.70;;
46110;SDS011;31849;55.992;37.252;2023-05-10T12:12:39;5.35;;;1.77;;
46110;SDS011;31849;55.992;37.252;2023-05-10T12:17:46;4.50;;;1.95;;
46110;SDS011;31849;55.992;37.252;2023-05-10T12:22:50;4.30;;;2.00;;
46110;SDS011;31849;55.992;37.252;2023-05-10T12:27:56;4.68;;;1.88;;
46110;SDS011;31849;55.992;37.252;2023-05-10T12:33:07;4.90;;;1.80;;
46110;SDS011;31849;55.992;37.252;2023-05-10T12:38:27;3.17;;;1.95;;
46110;SDS011;31849;55.992;37.252;2023-05-10T12:43:32;4.07;;;1.95;;
46110;SDS011;31849;55.992;37.252;2023-05-10T12:48:38;7.10;;;2.05;;
46110;SDS011;31849;55.992;37.252;2023-05-10T12:53:43;4.78;;;2.08;;
46110;SDS011;31849;55.992;37.252;2023-05-10T12:58:50;5.63;;;1.80;;
46110;SDS011;31849;55.992;37.252;2023-05-10T13:03:55;3.87;;;2.07;;
46110;SDS011;31849;55.992;37.252;2023-05-10T13:08:58;5.47;;;2.00;;
46110;SDS011;31849;55.992;37.252;2023-05-10T13:14:02;4.65;;;1.83;;
46110;SDS011;31849;55.992;37.252;2023-05-10T13:19:07;3.00;;;1.83;;
46110;SDS011;31849;55.992;37.252;2023-05-10T13:24:11;5.72;;;2.15;;
46110;SDS011;31849;55.992;37.252;2023-05-10T13:29:16;7.93;;;2.20;;
46110;SDS011;31849;55.992;37.252;2023-05-10T13:34:21;4.38;;;2.08;;
46110;SDS011;31849;55.992;37.252;2023-05-10T13:39:25;5.13;;;2.10;;
46110;SDS011;31849;55.992;37.252;2023-05-10T13:44:31;4.38;;;1.73;;
46110;SDS011;31849;55.992;37.252;2023-05-10T13:49:36;4.65;;;1.70;;
46110;SDS011;31849;55.992;37.252;2023-05-10T13:54:40;4.47;;;2.05;;
46110;SDS011;31849;55.992;37.252;2023-05-10T13:59:44;4.30;;;1.90;;
46110;SDS011;31849;55.992;37.252;2023-05-10T14:04:49;3.83;;;1.90;;
46110;SDS011;31849;55.992;37.252;2023-05-10T14:09:52;3.85;;;2.00;;
46110;SDS011;31849;55.992;37.252;2023-05-10T14:14:56;7.63;;;2.10;;
46110;SDS011;31849;55.992;37.252;2023-05-10T14:20:01;5.43;;;1.93;;
46110;SDS011;31849;55.992;37.252;2023-05-10T14:25:05;4.15;;;1.88;;
46110;SDS011;31849;55.992;37.252;2023-05-10T14:30:10;5.25;;;2.15;;
46110;SDS011;31849;55.992;37.252;2023-05-10T14:35:15;5.75;;;2.05;;
46110;SDS011;31849;55.992;37.252;2023-05-10T14:40:20;3.30;;;1.88;;
46110;SDS011;31849;55.992;37.252;2023-05-10T14:45:24;4.15;;;1.92;;
46110;SDS011;31849;55.992;37.252;2023-05-10T14:50:29;3.20;;;2.08;;
46110;SDS011;31849;55.992;37.252;2023-05-10T14:55:38;5.28;;;2.10;;
46110;SDS011;31849;55.992;37.252;2023-05-10T15:00:41;5.97;;;2.10;;
46110;SDS011;31849;55.992;37.252;2023-05-10T15:05:47;4.35;;;2.47;;
46110;SDS011;31849;55.992;37.252;2023-05-10T15:10:50;4.63;;;1.88;;
46110;SDS011;31849;55.992;37.252;2023-05-10T15:15:54;5.68;;;2.20;;
46110;SDS011;31849;55.992;37.252;2023-05-10T15:20:59;9.77;;;2.43;;
46110;SDS011;31849;55.992;37.252;2023-05-10T15:26:03;6.63;;;2.40;;
46110;SDS011;31849;55.992;37.252;2023-05-10T15:31:06;6.53;;;2.13;;
46110;SDS011;31849;55.992;37.252;2023-05-10T15:36:11;6.83;;;2.00;;
46110;SDS011;31849;55.992;37.252;2023-05-10T15:41:15;5.45;;;2.78;;
46110;SDS011;31849;55.992;37.252;2023-05-10T15:46:18;10.87;;;2.43;;
46110;SDS011;31849;55.992;37.252;2023-05-10T15:51:24;6.43;;;2.60;;
46110;SDS011;31849;55.992;37.252;2023-05-10T15:56:27;7.55;;;2.70;;
46110;SDS011;31849;55.992;37.252;2023-05-10T16:01:31;11.23;;;2.93;;
46110;SDS011;31849;55.992;37.252;2023-05-10T16:06:36;8.10;;;4.85;;
46110;SDS011;31849;55.992;37.252;2023-05-10T16:11:41;5.30;;;2.97;;
46110;SDS011;31849;55.992;37.252;2023-05-10T16:16:45;4.80;;;2.30;;
46110;SDS011;31849;55.992;37.252;2023-05-10T16:21:51;4.65;;;2.53;;
46110;SDS011;31849;55.992;37.252;2023-05-10T16:26:54;5.68;;;2.10;;
46110;SDS011;31849;55.992;37.252;2023-05-10T16:31:58;6.60;;;2.30;;
46110;SDS011;31849;55.992;37.252;2023-05-10T16:37:03;4.75;;;2.25;;
46110;SDS011;31849;55.992;37.252;2023-05-10T16:42:08;6.30;;;2.20;;
46110;SDS011;31849;55.992;37.252;2023-05-10T16:47:11;6.60;;;2.57;;
46110;SDS011;31849;55.992;37.252;2023-05-10T16:52:16;6.57;;;2.37;;
46110;SDS011;31849;55.992;37.252;2023-05-10T16:57:20;6.45;;;2.08;;
46110;SDS011;31849;55.992;37.252;2023-05-10T17:02:23;17.33;;;2.63;;
46110;SDS011;31849;55.992;37.252;2023-05-10T17:07:29;8.60;;;2.80;;
46110;SDS011;31849;55.992;37.252;2023-05-10T17:12:32;9.02;;;3.90;;
46110;SDS011;31849;55.992;37.252;2023-05-10T17:17:36;11.18;;;3.30;;
46110;SDS011;31849;55.992;37.252;2023-05-10T17:22:41;11.57;;;3.13;;
46110;SDS011;31849;55.992;37.252;2023-05-10T17:27:45;15.77;;;3.95;;
46110;SDS011;31849;55.992;37.252;2023-05-10T17:32:48;13.63;;;3.85;;
46110;SDS011;31849;55.992;37.252;2023-05-10T17:37:53;23.63;;;5.07;;
46110;SDS011;31849;55.992;37.252;2023-05-10T17:42:57;12.43;;;4.13;;
46110;SDS011;31849;55.992;37.252;2023-05-10T17:48:01;17.58;;;4.78;;
46110;SDS011;31849;55.992;37.252;2023-05-10T17:53:07;16.98;;;4.90;;
46110;SDS011;31849;55.992;37.252;2023-05-10T17:58:11;14.18;;;3.88;;
46110;SDS011;31849;55.992;37.252;2023-05-10T18:03:14;7.70;;;3.40;;
46110;SDS011;31849;55.992;37.252;2023-05-10T18:08:19;6.93;;;2.50;;
46110;SDS011;31849;55.992;37.252;2023-05-10T18:13:27;6.55;;;2.45;;
46110;SDS011;31849;55.992;37.252;2023-05-10T18:18:31;4.13;;;2.25;;
46110;SDS011;31849;55.992;37.252;2023-05-10T18:23:36;3.78;;;1.95;;
46110;SDS011;31849;55.992;37.252;2023-05-10T18:28:39;4.63;;;1.80;;
46110;SDS011;31849;55.992;37.252;2023-05-10T18:33:43;7.60;;;2.73;;
46110;SDS011;31849;55.992;37.252;2023-05-10T18:38:48;5.93;;;2.47;;
46110;SDS011;31849;55.992;37.252;2023-05-10T18:43:52;7.43;;;2.70;;
46110;SDS011;31849;55.992;37.252;2023-05-10T18:48:56;7.10;;;3.00;;
46110;SDS011;31849;55.992;37.252;2023-05-10T18:54:01;10.32;;;2.85;;
46110;SDS011;31849;55.992;37.252;2023-05-10T18:59:04;7.15;;;2.60;;
46110;SDS011;31849;55.992;37.252;2023-05-10T19:04:08;8.85;;;3.17;;
46110;SDS011;31849;55.992;37.252;2023-05-10T19:09:13;10.80;;;2.83;;
46110;SDS011;31849;55.992;37.252;2023-05-10T19:14:17;10.90;;;3.30;;
46110;SDS011;31849;55.992;37.252;2023-05-10T19:19:20;8.73;;;3.10;;
46110;SDS011;31849;55.992;37.252;2023-05-10T19:24:25;5.75;;;2.65;;
46110;SDS011;31849;55.992;37.252;2023-05-10T19:29:29;9.32;;;2.78;;
46110;SDS011;31849;55.992;37.252;2023-05-10T19:34:32;6.07;;;3.00;;
46110;SDS011;31849;55.992;37.252;2023-05-10T19:39:38;9.65;;;3.00;;
46110;SDS011;31849;55.992;37.252;2023-05-10T19:44:41;6.65;;;2.55;;
46110;SDS011;31849;55.992;37.252;2023-05-10T19:49:45;15.40;;;3.70;;
46110;SDS011;31849;55.992;37.252;2023-05-10T19:54:50;9.50;;;3.80;;
46110;SDS011;31849;55.992;37.252;2023-05-10T19:59:53;12.15;;;3.30;;
46110;SDS011;31849;55.992;37.252;2023-05-10T20:04:57;11.60;;;3.90;;
46110;SDS011;31849;55.992;37.252;2023-05-10T20:10:02;10.27;;;4.05;;
46110;SDS011;31849;55.992;37.252;2023-05-10T20:15:06;11.68;;;3.78;;
46110;SDS011;31849;55.992;37.252;2023-05-10T20:20:10;11.15;;;3.50;;
46110;SDS011;31849;55.992;37.252;2023-05-10T20:25:16;10.98;;;3.25;;
46110;SDS011;31849;55.992;37.252;2023-05-10T20:30:21;17.83;;;4.25;;
46110;SDS011;31849;55.992;37.252;2023-05-10T20:35:24;21.73;;;5.50;;
46110;SDS011;31849;55.992;37.252;2023-05-10T20:40:29;14.68;;;4.10;;
46110;SDS011;31849;55.992;37.252;2023-05-10T20:45:33;14.25;;;4.07;;
46110;SDS011;31849;55.992;37.252;2023-05-10T20:50:38;11.80;;;3.78;;
46110;SDS011;31849;55.992;37.252;2023-05-10T20:55:43;16.40;;;3.70;;
46110;SDS011;31849;55.992;37.252;2023-05-10T21:00:46;14.65;;;4.20;;
46110;SDS011;31849;55.992;37.252;2023-05-10T21:05:50;12.20;;;3.90;;
46110;SDS011;31849;55.992;37.252;2023-05-10T21:10:55;18.92;;;4.20;;
46110;SDS011;31849;55.992;37.252;2023-05-10T21:15:59;12.40;;;4.13;;
46110;SDS011;31849;55.992;37.252;2023-05-10T21:21:02;15.77;;;3.50;;
46110;SDS011;31849;55.992;37.252;2023-05-10T21:26:07;9.95;;;3.25;;
46110;SDS011;31849;55.992;37.252;2023-05-10T21:31:11;12.13;;;3.40;;
46110;SDS011;31849;55.992;37.252;2023-05-10T21:36:14;14.70;;;4.60;;
46110;SDS011;31849;55.992;37.252;2023-05-10T21:41:19;7.45;;;3.55;;
46110;SDS011;31849;55.992;37.252;2023-05-10T21:46:23;11.30;;;3.47;;
46110;SDS011;31849;55.992;37.252;2023-05-10T21:51:27;14.45;;;4.03;;
46110;SDS011;31849;55.992;37.252;2023-05-10T21:56:32;9.48;;;3.95;;
46110;SDS011;31849;55.992;37.252;2023-05-10T22:01:35;12.73;;;3.97;;
46110;SDS011;31849;55.992;37.252;2023-05-10T22:06:39;11.00;;;4.10;;
46110;SDS011;31849;55.992;37.252;2023-05-10T22:11:44;10.48;;;4.30;;
46110;SDS011;31849;55.992;37.252;2023-05-10T22:16:49;14.00;;;4.75;;
46110;SDS011;31849;55.992;37.252;2023-05-10T22:21:53;16.30;;;4.60;;
46110;SDS011;31849;55.992;37.252;2023-05-10T22:26:58;10.43;;;4.38;;
46110;SDS011;31849;55.992;37.252;2023-05-10T22:37:06;10.60;;;4.68;;
46110;SDS011;31849;55.992;37.252;2023-05-10T22:42:11;14.77;;;4.97;;
46110;SDS011;31849;55.992;37.252;2023-05-10T22:52:18;13.30;;;4.88;;
46110;SDS011;31849;55.992;37.252;2023-05-10T22:57:23;13.70;;;4.90;;
46110;SDS011;31849;55.992;37.252;2023-05-10T23:02:26;18.52;;;5.53;;
46110;SDS011;31849;55.992;37.252;2023-05-10T23:07:30;10.95;;;5.10;;
46110;SDS011;31849;55.992;37.252;2023-05-10T23:12:35;15.00;;;5.50;;
46110;SDS011;31849;55.992;37.252;2023-05-10T23:22:42;8.52;;;4.95;;
46110;SDS011;31849;55.992;37.252;2023-05-10T23:27:47;12.07;;;5.50;;
46110;SDS011;31849;55.992;37.252;2023-05-10T23:37:53;16.02;;;6.32;;
46110;SDS011;31849;55.992;37.252;2023-05-10T23:42:58;15.40;;;5.97;;
46110;SDS011;31849;55.992;37.252;2023-05-10T23:48:02;12.40;;;5.70;;
46110;SDS011;31849;55.992;37.252;2023-05-10T23:53:06;16.08;;;6.70;;
46110;SDS011;31849;55.992;37.252;2023-05-10T23:58:11;18.38;;;6.82;;
